sensor_id;sensor_type;location;lat;lon;timestamp;P1;durP1;ratioP1;P2;durP2;ratioP2
17566;SDS011;8901;52.088;5.084;2023-05-16T00:00:37;14.60;;;5.27;;
17566;SDS011;8901;52.088;5.084;2023-05-16T00:03:04;13.67;;;6.17;;
17566;SDS011;8901;52.088;5.084;2023-05-16T00:05:33;14.07;;;5.43;;
17566;SDS011;8901;52.088;5.084;2023-05-16T00:08:00;14.87;;;5.33;;
17566;SDS011;8901;52.088;5.084;2023-05-16T00:10:28;13.20;;;5.50;;
17566;SDS011;8901;52.088;5.084;2023-05-16T00:12:55;13.50;;;5.97;;
17566;SDS011;8901;52.088;5.084;2023-05-16T00:15:22;13.00;;;5.37;;
17566;SDS011;8901;52.088;5.084;2023-05-16T00:17:50;11.90;;;5.53;;
17566;SDS011;8901;52.088;5.084;2023-05-16T00:20:17;12.87;;;5.00;;
17566;SDS011;8901;52.088;5.084;2023-05-16T00:22:48;12.60;;;5.87;;
17566;SDS011;8901;52.088;5.084;2023-05-16T00:25:16;14.10;;;5.80;;
17566;SDS011;8901;52.088;5.084;2023-05-16T00:27:43;15.33;;;5.97;;
17566;SDS011;8901;52.088;5.084;2023-05-16T00:30:10;8.87;;;4.83;;
17566;SDS011;8901;52.088;5.084;2023-05-16T00:32:38;13.50;;;5.63;;
17566;SDS011;8901;52.088;5.084;2023-05-16T00:35:05;10.77;;;5.63;;
17566;SDS011;8901;52.088;5.084;2023-05-16T00:40:25;11.27;;;5.30;;
17566;SDS011;8901;52.088;5.084;2023-05-16T00:42:53;15.57;;;5.83;;
17566;SDS011;8901;52.088;5.084;2023-05-16T00:45:20;12.63;;;5.90;;
17566;SDS011;8901;52.088;5.084;2023-05-16T00:47:48;13.87;;;5.93;;
17566;SDS011;8901;52.088;5.084;2023-05-16T00:50:16;12.47;;;5.87;;
17566;SDS011;8901;52.088;5.084;2023-05-16T00:52:43;16.30;;;6.00;;
17566;SDS011;8901;52.088;5.084;2023-05-16T00:55:11;16.33;;;5.30;;
17566;SDS011;8901;52.088;5.084;2023-05-16T00:57:40;13.00;;;5.57;;
17566;SDS011;8901;52.088;5.084;2023-05-16T01:00:08;14.43;;;5.43;;
17566;SDS011;8901;52.088;5.084;2023-05-16T01:02:36;14.97;;;5.30;;
17566;SDS011;8901;52.088;5.084;2023-05-16T01:05:04;15.23;;;5.77;;
17566;SDS011;8901;52.088;5.084;2023-05-16T01:07:32;9.43;;;4.90;;
17566;SDS011;8901;52.088;5.084;2023-05-16T01:09:59;13.97;;;5.60;;
17566;SDS011;8901;52.088;5.084;2023-05-16T01:12:28;12.40;;;6.27;;
17566;SDS011;8901;52.088;5.084;2023-05-16T01:15:01;16.43;;;6.23;;
17566;SDS011;8901;52.088;5.084;2023-05-16T01:17:33;10.90;;;5.67;;
17566;SDS011;8901;52.088;5.084;2023-05-16T01:20:03;12.43;;;5.53;;
17566;SDS011;8901;52.088;5.084;2023-05-16T01:22:35;12.00;;;6.00;;
17566;SDS011;8901;52.088;5.084;2023-05-16T01:25:05;12.50;;;5.47;;
17566;SDS011;8901;52.088;5.084;2023-05-16T01:27:36;12.27;;;5.90;;
17566;SDS011;8901;52.088;5.084;2023-05-16T01:30:12;11.30;;;5.60;;
17566;SDS011;8901;52.088;5.084;2023-05-16T01:32:40;11.63;;;5.40;;
17566;SDS011;8901;52.088;5.084;2023-05-16T01:35:08;15.33;;;5.97;;
17566;SDS011;8901;52.088;5.084;2023-05-16T01:37:38;13.63;;;5.77;;
17566;SDS011;8901;52.088;5.084;2023-05-16T01:40:07;14.90;;;6.03;;
17566;SDS011;8901;52.088;5.084;2023-05-16T01:42:38;12.87;;;6.17;;
17566;SDS011;8901;52.088;5.084;2023-05-16T01:45:06;8.63;;;5.10;;
17566;SDS011;8901;52.088;5.084;2023-05-16T01:47:36;12.07;;;5.60;;
17566;SDS011;8901;52.088;5.084;2023-05-16T01:50:06;9.10;;;5.30;;
17566;SDS011;8901;52.088;5.084;2023-05-16T01:52:36;13.50;;;5.67;;
17566;SDS011;8901;52.088;5.084;2023-05-16T01:55:05;9.83;;;5.40;;
17566;SDS011;8901;52.088;5.084;2023-05-16T01:57:33;8.47;;;5.33;;
17566;SDS011;8901;52.088;5.084;2023-05-16T02:00:03;12.63;;;5.60;;
17566;SDS011;8901;52.088;5.084;2023-05-16T02:02:30;10.63;;;5.50;;
17566;SDS011;8901;52.088;5.084;2023-05-16T02:04:57;11.93;;;5.30;;
17566;SDS011;8901;52.088;5.084;2023-05-16T02:07:24;14.70;;;5.67;;
17566;SDS011;8901;52.088;5.084;2023-05-16T02:09:52;15.37;;;5.63;;
17566;SDS011;8901;52.088;5.084;2023-05-16T02:12:19;14.17;;;5.40;;
17566;SDS011;8901;52.088;5.084;2023-05-16T02:14:46;12.80;;;5.87;;
17566;SDS011;8901;52.088;5.084;2023-05-16T02:17:14;14.87;;;6.23;;
17566;SDS011;8901;52.088;5.084;2023-05-16T02:19:42;10.77;;;5.53;;
17566;SDS011;8901;52.088;5.084;2023-05-16T02:22:09;14.00;;;6.30;;
17566;SDS011;8901;52.088;5.084;2023-05-16T02:24:36;9.57;;;5.43;;
17566;SDS011;8901;52.088;5.084;2023-05-16T02:27:03;14.93;;;5.67;;
17566;SDS011;8901;52.088;5.084;2023-05-16T02:29:30;16.60;;;7.17;;
17566;SDS011;8901;52.088;5.084;2023-05-16T02:31:57;14.23;;;5.70;;
17566;SDS011;8901;52.088;5.084;2023-05-16T02:34:26;16.83;;;4.97;;
17566;SDS011;8901;52.088;5.084;2023-05-16T02:36:53;11.93;;;5.60;;
17566;SDS011;8901;52.088;5.084;2023-05-16T02:39:20;12.97;;;5.53;;
17566;SDS011;8901;52.088;5.084;2023-05-16T02:41:48;12.87;;;5.77;;
17566;SDS011;8901;52.088;5.084;2023-05-16T02:44:15;13.20;;;5.10;;
17566;SDS011;8901;52.088;5.084;2023-05-16T02:46:42;10.67;;;5.00;;
17566;SDS011;8901;52.088;5.084;2023-05-16T02:49:09;11.93;;;5.20;;
17566;SDS011;8901;52.088;5.084;2023-05-16T02:51:38;14.43;;;5.40;;
17566;SDS011;8901;52.088;5.084;2023-05-16T02:54:05;13.07;;;5.67;;
17566;SDS011;8901;52.088;5.084;2023-05-16T02:56:34;12.93;;;5.90;;
17566;SDS011;8901;52.088;5.084;2023-05-16T02:59:01;12.60;;;6.40;;
17566;SDS011;8901;52.088;5.084;2023-05-16T03:01:29;13.37;;;6.13;;
17566;SDS011;8901;52.088;5.084;2023-05-16T03:03:56;10.83;;;5.00;;
17566;SDS011;8901;52.088;5.084;2023-05-16T03:06:23;13.93;;;5.33;;
17566;SDS011;8901;52.088;5.084;2023-05-16T03:08:52;11.33;;;5.40;;
17566;SDS011;8901;52.088;5.084;2023-05-16T03:11:19;12.37;;;5.97;;
17566;SDS011;8901;52.088;5.084;2023-05-16T03:13:48;11.57;;;5.23;;
17566;SDS011;8901;52.088;5.084;2023-05-16T03:16:16;10.00;;;5.00;;
17566;SDS011;8901;52.088;5.084;2023-05-16T03:18:43;11.00;;;5.90;;
17566;SDS011;8901;52.088;5.084;2023-05-16T03:21:10;10.33;;;5.77;;
17566;SDS011;8901;52.088;5.084;2023-05-16T03:23:37;11.67;;;5.80;;
17566;SDS011;8901;52.088;5.084;2023-05-16T03:26:06;14.37;;;5.73;;
17566;SDS011;8901;52.088;5.084;2023-05-16T03:28:33;10.03;;;6.10;;
17566;SDS011;8901;52.088;5.084;2023-05-16T03:31:00;14.17;;;6.60;;
17566;SDS011;8901;52.088;5.084;2023-05-16T03:33:27;9.57;;;6.23;;
17566;SDS011;8901;52.088;5.084;2023-05-16T03:35:54;11.87;;;5.70;;
17566;SDS011;8901;52.088;5.084;2023-05-16T03:38:22;16.93;;;6.17;;
17566;SDS011;8901;52.088;5.084;2023-05-16T03:40:49;13.97;;;5.97;;
17566;SDS011;8901;52.088;5.084;2023-05-16T03:43:18;9.20;;;5.27;;
17566;SDS011;8901;52.088;5.084;2023-05-16T03:45:45;19.47;;;6.43;;
17566;SDS011;8901;52.088;5.084;2023-05-16T03:48:14;11.40;;;6.17;;
17566;SDS011;8901;52.088;5.084;2023-05-16T03:50:41;11.37;;;6.30;;
17566;SDS011;8901;52.088;5.084;2023-05-16T03:53:09;16.37;;;6.00;;
17566;SDS011;8901;52.088;5.084;2023-05-16T03:55:36;12.10;;;5.30;;
17566;SDS011;8901;52.088;5.084;2023-05-16T03:58:03;9.60;;;5.40;;
17566;SDS011;8901;52.088;5.084;2023-05-16T04:00:33;14.10;;;7.10;;
17566;SDS011;8901;52.088;5.084;2023-05-16T04:03:00;15.00;;;6.77;;
17566;SDS011;8901;52.088;5.084;2023-05-16T04:05:28;10.30;;;5.97;;
17566;SDS011;8901;52.088;5.084;2023-05-16T04:07:55;13.07;;;5.93;;
17566;SDS011;8901;52.088;5.084;2023-05-16T04:10:22;12.77;;;6.00;;
17566;SDS011;8901;52.088;5.084;2023-05-16T04:12:49;9.73;;;6.07;;
17566;SDS011;8901;52.088;5.084;2023-05-16T04:15:17;15.50;;;6.23;;
17566;SDS011;8901;52.088;5.084;2023-05-16T04:17:45;10.67;;;6.40;;
17566;SDS011;8901;52.088;5.084;2023-05-16T04:20:12;11.27;;;5.40;;
17566;SDS011;8901;52.088;5.084;2023-05-16T04:22:39;9.90;;;6.07;;
17566;SDS011;8901;52.088;5.084;2023-05-16T04:25:07;12.93;;;6.20;;
17566;SDS011;8901;52.088;5.084;2023-05-16T04:27:35;11.33;;;6.63;;
17566;SDS011;8901;52.088;5.084;2023-05-16T04:30:02;9.43;;;6.13;;
17566;SDS011;8901;52.088;5.084;2023-05-16T04:32:30;9.30;;;6.67;;
17566;SDS011;8901;52.088;5.084;2023-05-16T04:35:00;11.77;;;6.50;;
17566;SDS011;8901;52.088;5.084;2023-05-16T04:37:28;17.83;;;6.97;;
17566;SDS011;8901;52.088;5.084;2023-05-16T04:39:55;12.63;;;6.70;;
17566;SDS011;8901;52.088;5.084;2023-05-16T04:42:23;13.70;;;6.50;;
17566;SDS011;8901;52.088;5.084;2023-05-16T04:44:50;11.67;;;6.33;;
17566;SDS011;8901;52.088;5.084;2023-05-16T04:47:18;10.83;;;6.00;;
17566;SDS011;8901;52.088;5.084;2023-05-16T04:49:45;19.80;;;6.90;;
17566;SDS011;8901;52.088;5.084;2023-05-16T04:52:14;10.00;;;5.43;;
17566;SDS011;8901;52.088;5.084;2023-05-16T04:54:41;14.30;;;6.27;;
17566;SDS011;8901;52.088;5.084;2023-05-16T04:57:08;8.07;;;5.53;;
17566;SDS011;8901;52.088;5.084;2023-05-16T04:59:35;10.03;;;6.27;;
17566;SDS011;8901;52.088;5.084;2023-05-16T05:02:02;15.60;;;6.60;;
17566;SDS011;8901;52.088;5.084;2023-05-16T05:04:30;9.37;;;6.47;;
17566;SDS011;8901;52.088;5.084;2023-05-16T05:07:00;10.60;;;6.70;;
17566;SDS011;8901;52.088;5.084;2023-05-16T05:09:29;14.30;;;7.13;;
17566;SDS011;8901;52.088;5.084;2023-05-16T05:11:56;11.60;;;6.93;;
17566;SDS011;8901;52.088;5.084;2023-05-16T05:14:23;12.43;;;6.37;;
17566;SDS011;8901;52.088;5.084;2023-05-16T05:16:51;12.17;;;5.70;;
17566;SDS011;8901;52.088;5.084;2023-05-16T05:19:18;9.13;;;6.07;;
17566;SDS011;8901;52.088;5.084;2023-05-16T05:21:45;11.47;;;6.10;;
17566;SDS011;8901;52.088;5.084;2023-05-16T05:24:12;11.20;;;5.87;;
17566;SDS011;8901;52.088;5.084;2023-05-16T05:26:41;12.03;;;6.67;;
17566;SDS011;8901;52.088;5.084;2023-05-16T05:29:08;11.73;;;6.70;;
17566;SDS011;8901;52.088;5.084;2023-05-16T05:31:35;10.13;;;5.80;;
17566;SDS011;8901;52.088;5.084;2023-05-16T05:34:02;10.03;;;5.83;;
17566;SDS011;8901;52.088;5.084;2023-05-16T05:36:30;13.53;;;6.07;;
17566;SDS011;8901;52.088;5.084;2023-05-16T05:38:58;8.67;;;6.00;;
17566;SDS011;8901;52.088;5.084;2023-05-16T05:41:25;10.87;;;6.43;;
17566;SDS011;8901;52.088;5.084;2023-05-16T05:43:53;15.83;;;6.03;;
17566;SDS011;8901;52.088;5.084;2023-05-16T05:46:21;11.40;;;6.00;;
17566;SDS011;8901;52.088;5.084;2023-05-16T05:48:48;9.77;;;5.53;;
17566;SDS011;8901;52.088;5.084;2023-05-16T05:51:15;8.83;;;5.70;;
17566;SDS011;8901;52.088;5.084;2023-05-16T05:53:42;8.67;;;6.30;;
17566;SDS011;8901;52.088;5.084;2023-05-16T05:56:09;16.77;;;6.00;;
17566;SDS011;8901;52.088;5.084;2023-05-16T05:58:37;13.50;;;5.73;;
17566;SDS011;8901;52.088;5.084;2023-05-16T06:01:07;11.70;;;6.00;;
17566;SDS011;8901;52.088;5.084;2023-05-16T06:03:34;11.30;;;5.47;;
17566;SDS011;8901;52.088;5.084;2023-05-16T06:06:02;13.10;;;5.57;;
17566;SDS011;8901;52.088;5.084;2023-05-16T06:08:29;8.57;;;5.53;;
17566;SDS011;8901;52.088;5.084;2023-05-16T06:10:58;8.10;;;5.70;;
17566;SDS011;8901;52.088;5.084;2023-05-16T06:13:25;9.80;;;5.80;;
17566;SDS011;8901;52.088;5.084;2023-05-16T06:16:12;9.87;;;5.37;;
17566;SDS011;8901;52.088;5.084;2023-05-16T06:18:39;10.03;;;5.60;;
17566;SDS011;8901;52.088;5.084;2023-05-16T06:21:06;10.93;;;5.60;;
17566;SDS011;8901;52.088;5.084;2023-05-16T06:23:33;7.30;;;5.60;;
17566;SDS011;8901;52.088;5.084;2023-05-16T06:26:01;12.93;;;5.73;;
17566;SDS011;8901;52.088;5.084;2023-05-16T06:28:31;11.30;;;5.33;;
17566;SDS011;8901;52.088;5.084;2023-05-16T06:30:58;10.23;;;5.80;;
17566;SDS011;8901;52.088;5.084;2023-05-16T06:33:27;11.07;;;5.77;;
17566;SDS011;8901;52.088;5.084;2023-05-16T06:35:54;9.17;;;5.70;;
17566;SDS011;8901;52.088;5.084;2023-05-16T06:38:21;9.53;;;5.10;;
17566;SDS011;8901;52.088;5.084;2023-05-16T06:40:48;7.53;;;5.67;;
17566;SDS011;8901;52.088;5.084;2023-05-16T06:43:16;8.63;;;5.50;;
17566;SDS011;8901;52.088;5.084;2023-05-16T06:45:43;11.73;;;6.03;;
17566;SDS011;8901;52.088;5.084;2023-05-16T06:48:12;8.30;;;6.43;;
17566;SDS011;8901;52.088;5.084;2023-05-16T06:50:40;9.63;;;6.10;;
17566;SDS011;8901;52.088;5.084;2023-05-16T06:53:08;9.90;;;6.07;;
17566;SDS011;8901;52.088;5.084;2023-05-16T06:55:36;10.43;;;6.53;;
17566;SDS011;8901;52.088;5.084;2023-05-16T06:58:03;10.13;;;6.17;;
17566;SDS011;8901;52.088;5.084;2023-05-16T07:00:30;9.27;;;6.10;;
17566;SDS011;8901;52.088;5.084;2023-05-16T07:02:57;8.60;;;6.13;;
17566;SDS011;8901;52.088;5.084;2023-05-16T07:05:24;8.90;;;6.17;;
17566;SDS011;8901;52.088;5.084;2023-05-16T07:07:53;12.83;;;6.50;;
17566;SDS011;8901;52.088;5.084;2023-05-16T07:10:20;9.57;;;6.17;;
17566;SDS011;8901;52.088;5.084;2023-05-16T07:12:47;8.53;;;6.07;;
17566;SDS011;8901;52.088;5.084;2023-05-16T07:15:15;10.43;;;6.63;;
17566;SDS011;8901;52.088;5.084;2023-05-16T07:17:42;10.33;;;6.47;;
17566;SDS011;8901;52.088;5.084;2023-05-16T07:23:14;12.70;;;7.00;;
17566;SDS011;8901;52.088;5.084;2023-05-16T07:25:42;7.20;;;6.50;;
17566;SDS011;8901;52.088;5.084;2023-05-16T07:28:09;9.60;;;6.90;;
17566;SDS011;8901;52.088;5.084;2023-05-16T07:30:36;8.20;;;7.37;;
17566;SDS011;8901;52.088;5.084;2023-05-16T07:33:04;10.13;;;8.27;;
17566;SDS011;8901;52.088;5.084;2023-05-16T07:35:31;9.37;;;7.50;;
17566;SDS011;8901;52.088;5.084;2023-05-16T07:37:58;10.00;;;9.10;;
17566;SDS011;8901;52.088;5.084;2023-05-16T07:40:27;11.23;;;10.13;;
17566;SDS011;8901;52.088;5.084;2023-05-16T07:42:54;12.73;;;10.83;;
17566;SDS011;8901;52.088;5.084;2023-05-16T07:45:21;13.67;;;12.30;;
17566;SDS011;8901;52.088;5.084;2023-05-16T07:47:48;13.63;;;12.43;;
17566;SDS011;8901;52.088;5.084;2023-05-16T07:55:56;16.77;;;15.37;;
17566;SDS011;8901;52.088;5.084;2023-05-16T07:58:23;17.50;;;16.20;;
17566;SDS011;8901;52.088;5.084;2023-05-16T08:00:50;22.40;;;20.97;;
17566;SDS011;8901;52.088;5.084;2023-05-16T08:03:17;20.63;;;19.20;;
17566;SDS011;8901;52.088;5.084;2023-05-16T08:05:44;19.20;;;17.87;;
17566;SDS011;8901;52.088;5.084;2023-05-16T08:08:12;18.77;;;17.37;;
17566;SDS011;8901;52.088;5.084;2023-05-16T08:10:40;13.27;;;12.17;;
17566;SDS011;8901;52.088;5.084;2023-05-16T08:13:08;11.20;;;10.00;;
17566;SDS011;8901;52.088;5.084;2023-05-16T08:15:36;10.80;;;9.53;;
17566;SDS011;8901;52.088;5.084;2023-05-16T08:18:03;10.23;;;9.43;;
17566;SDS011;8901;52.088;5.084;2023-05-16T08:20:31;11.90;;;9.67;;
17566;SDS011;8901;52.088;5.084;2023-05-16T08:22:58;11.73;;;9.80;;
17566;SDS011;8901;52.088;5.084;2023-05-16T08:25:25;10.20;;;9.10;;
17566;SDS011;8901;52.088;5.084;2023-05-16T08:27:53;11.83;;;9.93;;
17566;SDS011;8901;52.088;5.084;2023-05-16T08:30:21;12.70;;;11.60;;
17566;SDS011;8901;52.088;5.084;2023-05-16T08:32:48;11.50;;;10.70;;
17566;SDS011;8901;52.088;5.084;2023-05-16T08:35:16;13.00;;;11.90;;
17566;SDS011;8901;52.088;5.084;2023-05-16T08:37:43;13.77;;;12.17;;
17566;SDS011;8901;52.088;5.084;2023-05-16T08:40:10;13.27;;;12.00;;
17566;SDS011;8901;52.088;5.084;2023-05-16T08:42:39;11.87;;;10.70;;
17566;SDS011;8901;52.088;5.084;2023-05-16T08:45:07;11.23;;;10.10;;
17566;SDS011;8901;52.088;5.084;2023-05-16T08:47:35;11.20;;;10.10;;
17566;SDS011;8901;52.088;5.084;2023-05-16T08:53:09;12.73;;;11.53;;
17566;SDS011;8901;52.088;5.084;2023-05-16T08:55:37;11.50;;;10.50;;
17566;SDS011;8901;52.088;5.084;2023-05-16T08:58:05;13.43;;;12.40;;
17566;SDS011;8901;52.088;5.084;2023-05-16T09:00:32;13.73;;;12.47;;
17566;SDS011;8901;52.088;5.084;2023-05-16T09:03:01;14.73;;;13.70;;
17566;SDS011;8901;52.088;5.084;2023-05-16T09:05:28;16.13;;;14.73;;
17566;SDS011;8901;52.088;5.084;2023-05-16T09:07:56;15.80;;;14.50;;
17566;SDS011;8901;52.088;5.084;2023-05-16T09:10:24;17.27;;;15.97;;
17566;SDS011;8901;52.088;5.084;2023-05-16T09:12:51;14.93;;;13.80;;
17566;SDS011;8901;52.088;5.084;2023-05-16T09:15:18;16.30;;;14.80;;
17566;SDS011;8901;52.088;5.084;2023-05-16T09:17:45;15.90;;;14.50;;
17566;SDS011;8901;52.088;5.084;2023-05-16T09:20:15;17.60;;;16.30;;
17566;SDS011;8901;52.088;5.084;2023-05-16T09:22:49;18.53;;;16.90;;
17566;SDS011;8901;52.088;5.084;2023-05-16T09:25:17;18.17;;;16.87;;
17566;SDS011;8901;52.088;5.084;2023-05-16T09:27:45;16.57;;;15.17;;
17566;SDS011;8901;52.088;5.084;2023-05-16T09:30:13;15.63;;;14.33;;
17566;SDS011;8901;52.088;5.084;2023-05-16T09:32:42;15.23;;;14.13;;
17566;SDS011;8901;52.088;5.084;2023-05-16T09:35:10;17.40;;;16.00;;
17566;SDS011;8901;52.088;5.084;2023-05-16T09:37:38;17.73;;;16.37;;
17566;SDS011;8901;52.088;5.084;2023-05-16T09:40:10;16.03;;;14.83;;
17566;SDS011;8901;52.088;5.084;2023-05-16T09:42:37;16.17;;;15.07;;
17566;SDS011;8901;52.088;5.084;2023-05-16T09:45:05;16.47;;;14.97;;
17566;SDS011;8901;52.088;5.084;2023-05-16T09:47:32;18.20;;;16.60;;
17566;SDS011;8901;52.088;5.084;2023-05-16T09:50:00;17.30;;;16.10;;
17566;SDS011;8901;52.088;5.084;2023-05-16T09:52:27;18.23;;;16.93;;
17566;SDS011;8901;52.088;5.084;2023-05-16T09:54:55;17.07;;;15.67;;
17566;SDS011;8901;52.088;5.084;2023-05-16T09:57:23;15.00;;;14.00;;
17566;SDS011;8901;52.088;5.084;2023-05-16T09:59:51;19.03;;;17.43;;
17566;SDS011;8901;52.088;5.084;2023-05-16T10:02:18;19.20;;;17.80;;
17566;SDS011;8901;52.088;5.084;2023-05-16T10:04:45;19.93;;;18.20;;
17566;SDS011;8901;52.088;5.084;2023-05-16T10:07:13;18.53;;;17.23;;
17566;SDS011;8901;52.088;5.084;2023-05-16T10:09:41;17.50;;;16.20;;
17566;SDS011;8901;52.088;5.084;2023-05-16T10:12:11;18.10;;;16.80;;
17566;SDS011;8901;52.088;5.084;2023-05-16T10:14:39;20.00;;;18.27;;
17566;SDS011;8901;52.088;5.084;2023-05-16T10:17:07;19.77;;;18.40;;
17566;SDS011;8901;52.088;5.084;2023-05-16T10:19:36;19.50;;;18.10;;
17566;SDS011;8901;52.088;5.084;2023-05-16T10:22:05;19.07;;;17.40;;
17566;SDS011;8901;52.088;5.084;2023-05-16T10:24:36;18.33;;;16.97;;
17566;SDS011;8901;52.088;5.084;2023-05-16T10:27:05;20.50;;;18.80;;
17566;SDS011;8901;52.088;5.084;2023-05-16T10:29:34;20.00;;;18.40;;
17566;SDS011;8901;52.088;5.084;2023-05-16T10:32:01;18.40;;;16.87;;
17566;SDS011;8901;52.088;5.084;2023-05-16T10:34:29;19.27;;;17.77;;
17566;SDS011;8901;52.088;5.084;2023-05-16T10:36:56;19.93;;;18.07;;
17566;SDS011;8901;52.088;5.084;2023-05-16T10:39:23;19.73;;;18.50;;
17566;SDS011;8901;52.088;5.084;2023-05-16T10:41:51;20.13;;;18.77;;
17566;SDS011;8901;52.088;5.084;2023-05-16T10:44:19;19.33;;;17.73;;
17566;SDS011;8901;52.088;5.084;2023-05-16T10:49:49;20.00;;;18.70;;
17566;SDS011;8901;52.088;5.084;2023-05-16T10:52:17;21.10;;;19.53;;
17566;SDS011;8901;52.088;5.084;2023-05-16T10:54:49;20.60;;;18.90;;
17566;SDS011;8901;52.088;5.084;2023-05-16T10:57:17;19.63;;;18.27;;
17566;SDS011;8901;52.088;5.084;2023-05-16T10:59:46;20.07;;;18.67;;
17566;SDS011;8901;52.088;5.084;2023-05-16T11:05:18;21.70;;;19.97;;
17566;SDS011;8901;52.088;5.084;2023-05-16T11:08:01;21.00;;;19.70;;
17566;SDS011;8901;52.088;5.084;2023-05-16T11:10:34;20.80;;;19.30;;
17566;SDS011;8901;52.088;5.084;2023-05-16T11:15:50;21.93;;;20.33;;
17566;SDS011;8901;52.088;5.084;2023-05-16T11:18:26;21.17;;;19.77;;
17566;SDS011;8901;52.088;5.084;2023-05-16T11:26:26;22.53;;;20.73;;
17566;SDS011;8901;52.088;5.084;2023-05-16T11:29:04;22.03;;;20.37;;
17566;SDS011;8901;52.088;5.084;2023-05-16T11:34:34;20.00;;;18.57;;
17566;SDS011;8901;52.088;5.084;2023-05-16T11:37:09;21.63;;;20.00;;
17566;SDS011;8901;52.088;5.084;2023-05-16T11:39:39;20.67;;;19.27;;
17566;SDS011;8901;52.088;5.084;2023-05-16T11:42:13;18.73;;;17.43;;
17566;SDS011;8901;52.088;5.084;2023-05-16T11:45:02;22.30;;;20.27;;
17566;SDS011;8901;52.088;5.084;2023-05-16T11:50:36;20.63;;;19.07;;
17566;SDS011;8901;52.088;5.084;2023-05-16T11:53:13;21.10;;;19.43;;
17566;SDS011;8901;52.088;5.084;2023-05-16T12:01:03;21.10;;;19.80;;
17566;SDS011;8901;52.088;5.084;2023-05-16T12:03:34;22.10;;;20.50;;
17566;SDS011;8901;52.088;5.084;2023-05-16T12:06:03;22.20;;;20.30;;
17566;SDS011;8901;52.088;5.084;2023-05-16T12:11:52;20.93;;;19.53;;
17566;SDS011;8901;52.088;5.084;2023-05-16T12:14:19;21.40;;;19.90;;
17566;SDS011;8901;52.088;5.084;2023-05-16T12:16:48;22.43;;;20.77;;
17566;SDS011;8901;52.088;5.084;2023-05-16T12:19:16;21.67;;;20.20;;
17566;SDS011;8901;52.088;5.084;2023-05-16T12:21:44;21.50;;;19.90;;
17566;SDS011;8901;52.088;5.084;2023-05-16T12:24:11;21.90;;;20.17;;
17566;SDS011;8901;52.088;5.084;2023-05-16T12:26:39;22.30;;;20.77;;
17566;SDS011;8901;52.088;5.084;2023-05-16T12:29:07;23.07;;;21.47;;
17566;SDS011;8901;52.088;5.084;2023-05-16T12:31:36;23.00;;;21.37;;
17566;SDS011;8901;52.088;5.084;2023-05-16T12:34:05;22.43;;;20.73;;
17566;SDS011;8901;52.088;5.084;2023-05-16T12:36:41;22.60;;;21.10;;
17566;SDS011;8901;52.088;5.084;2023-05-16T12:39:11;22.37;;;20.87;;
17566;SDS011;8901;52.088;5.084;2023-05-16T12:41:40;21.97;;;20.10;;
17566;SDS011;8901;52.088;5.084;2023-05-16T12:44:11;23.23;;;21.53;;
17566;SDS011;8901;52.088;5.084;2023-05-16T12:46:41;22.57;;;20.97;;
17566;SDS011;8901;52.088;5.084;2023-05-16T12:49:09;22.87;;;21.07;;
17566;SDS011;8901;52.088;5.084;2023-05-16T12:51:37;22.87;;;20.87;;
17566;SDS011;8901;52.088;5.084;2023-05-16T12:54:08;24.20;;;22.27;;
17566;SDS011;8901;52.088;5.084;2023-05-16T12:56:36;23.93;;;21.97;;
17566;SDS011;8901;52.088;5.084;2023-05-16T12:59:03;22.87;;;21.10;;
17566;SDS011;8901;52.088;5.084;2023-05-16T13:01:30;22.93;;;21.17;;
17566;SDS011;8901;52.088;5.084;2023-05-16T13:03:57;22.60;;;20.80;;
17566;SDS011;8901;52.088;5.084;2023-05-16T13:06:26;22.70;;;21.10;;
17566;SDS011;8901;52.088;5.084;2023-05-16T13:08:53;23.67;;;21.87;;
17566;SDS011;8901;52.088;5.084;2023-05-16T13:11:21;23.53;;;21.93;;
17566;SDS011;8901;52.088;5.084;2023-05-16T13:13:49;22.97;;;21.13;;
17566;SDS011;8901;52.088;5.084;2023-05-16T13:16:16;23.87;;;21.97;;
17566;SDS011;8901;52.088;5.084;2023-05-16T13:18:43;24.30;;;22.50;;
17566;SDS011;8901;52.088;5.084;2023-05-16T13:21:11;24.00;;;22.20;;
17566;SDS011;8901;52.088;5.084;2023-05-16T13:23:39;24.80;;;22.30;;
17566;SDS011;8901;52.088;5.084;2023-05-16T13:26:06;22.77;;;21.17;;
17566;SDS011;8901;52.088;5.084;2023-05-16T13:28:33;23.53;;;21.93;;
17566;SDS011;8901;52.088;5.084;2023-05-16T13:31:01;21.97;;;20.67;;
17566;SDS011;8901;52.088;5.084;2023-05-16T13:33:28;24.60;;;22.60;;
17566;SDS011;8901;52.088;5.084;2023-05-16T13:35:56;24.20;;;22.57;;
17566;SDS011;8901;52.088;5.084;2023-05-16T13:38:23;22.90;;;21.27;;
17566;SDS011;8901;52.088;5.084;2023-05-16T13:40:51;24.07;;;22.20;;
17566;SDS011;8901;52.088;5.084;2023-05-16T13:43:19;23.83;;;22.13;;
17566;SDS011;8901;52.088;5.084;2023-05-16T13:45:46;23.57;;;21.87;;
17566;SDS011;8901;52.088;5.084;2023-05-16T13:48:13;24.43;;;22.30;;
17566;SDS011;8901;52.088;5.084;2023-05-16T13:50:40;22.90;;;21.23;;
17566;SDS011;8901;52.088;5.084;2023-05-16T13:53:07;23.33;;;21.63;;
17566;SDS011;8901;52.088;5.084;2023-05-16T13:55:34;23.10;;;21.60;;
17566;SDS011;8901;52.088;5.084;2023-05-16T13:58:03;23.10;;;21.40;;
17566;SDS011;8901;52.088;5.084;2023-05-16T14:00:30;24.30;;;22.40;;
17566;SDS011;8901;52.088;5.084;2023-05-16T14:02:58;23.20;;;21.50;;
17566;SDS011;8901;52.088;5.084;2023-05-16T14:05:25;22.33;;;20.70;;
17566;SDS011;8901;52.088;5.084;2023-05-16T14:07:52;23.50;;;21.80;;
17566;SDS011;8901;52.088;5.084;2023-05-16T14:10:20;23.40;;;21.40;;
17566;SDS011;8901;52.088;5.084;2023-05-16T14:12:47;23.50;;;21.83;;
17566;SDS011;8901;52.088;5.084;2023-05-16T14:15:17;24.40;;;22.70;;
17566;SDS011;8901;52.088;5.084;2023-05-16T14:17:45;23.27;;;21.77;;
17566;SDS011;8901;52.088;5.084;2023-05-16T14:20:12;24.53;;;22.67;;
17566;SDS011;8901;52.088;5.084;2023-05-16T14:22:39;23.33;;;21.63;;
17566;SDS011;8901;52.088;5.084;2023-05-16T14:31:15;22.87;;;21.20;;
17566;SDS011;8901;52.088;5.084;2023-05-16T14:33:42;21.80;;;20.33;;
17566;SDS011;8901;52.088;5.084;2023-05-16T14:36:16;23.50;;;21.90;;
17566;SDS011;8901;52.088;5.084;2023-05-16T14:38:45;23.67;;;21.83;;
17566;SDS011;8901;52.088;5.084;2023-05-16T14:41:20;21.73;;;20.50;;
17566;SDS011;8901;52.088;5.084;2023-05-16T14:47:07;22.23;;;20.73;;
17566;SDS011;8901;52.088;5.084;2023-05-16T14:52:42;23.33;;;21.83;;
17566;SDS011;8901;52.088;5.084;2023-05-16T14:55:11;22.93;;;21.33;;
17566;SDS011;8901;52.088;5.084;2023-05-16T14:57:47;21.70;;;20.40;;
17566;SDS011;8901;52.088;5.084;2023-05-16T15:00:27;22.43;;;20.93;;
17566;SDS011;8901;52.088;5.084;2023-05-16T15:02:57;23.00;;;21.50;;
17566;SDS011;8901;52.088;5.084;2023-05-16T15:07:57;22.97;;;21.47;;
17566;SDS011;8901;52.088;5.084;2023-05-16T15:13:28;22.73;;;20.97;;
17566;SDS011;8901;52.088;5.084;2023-05-16T15:16:04;23.23;;;21.57;;
17566;SDS011;8901;52.088;5.084;2023-05-16T15:18:38;23.10;;;21.50;;
17566;SDS011;8901;52.088;5.084;2023-05-16T15:24:08;23.27;;;21.70;;
17566;SDS011;8901;52.088;5.084;2023-05-16T15:29:53;21.73;;;20.23;;
17566;SDS011;8901;52.088;5.084;2023-05-16T15:32:22;22.33;;;20.83;;
17566;SDS011;8901;52.088;5.084;2023-05-16T15:35:01;20.40;;;19.00;;
17566;SDS011;8901;52.088;5.084;2023-05-16T15:37:34;20.47;;;19.17;;
17566;SDS011;8901;52.088;5.084;2023-05-16T15:40:15;22.27;;;20.60;;
17566;SDS011;8901;52.088;5.084;2023-05-16T15:42:52;21.60;;;20.23;;
17566;SDS011;8901;52.088;5.084;2023-05-16T15:45:20;21.73;;;20.17;;
17566;SDS011;8901;52.088;5.084;2023-05-16T15:50:47;22.10;;;20.50;;
17566;SDS011;8901;52.088;5.084;2023-05-16T16:02:16;21.43;;;19.93;;
17566;SDS011;8901;52.088;5.084;2023-05-16T16:07:43;20.13;;;18.73;;
17566;SDS011;8901;52.088;5.084;2023-05-16T16:12:59;20.23;;;18.70;;
17566;SDS011;8901;52.088;5.084;2023-05-16T16:15:26;20.13;;;18.73;;